Time;durP1;ratioP1;P1;durP2;ratioP2;P2;SDS_P1;SDS_P2;PMS_P1;PMS_P2;Temp;Humidity;BMP_temperature;BMP_pressure;BME280_temperature;BME280_humidity;BME280_pressure;Samples;Min_cycle;Max_cycle;Signal;HPM_P1;HPM_P2
2022/06/21 00:02:47;;;;;;;4.05;2.63;;;;;;;;;;8352283;28;20048;-60
2022/06/21 00:06:47;;;;;;;2.95;2.65;;;;;;;;;;8352202;28;20497;-60
2022/06/21 00:10:48;;;;;;;5.07;2.73;;;;;;;;;;8352643;28;20068;-60
2022/06/21 00:14:48;;;;;;;4.13;2.60;;;;;;;;;;8350045;28;20318;-60
2022/06/21 00:18:49;;;;;;;4.35;2.80;;;;;;;;;;8351428;28;20039;-61
2022/06/21 00:22:49;;;;;;;4.28;2.83;;;;;;;;;;8352427;28;20028;-60
2022/06/21 00:26:49;;;;;;;4.28;2.92;;;;;;;;;;8351918;28;20024;-60
2022/06/21 00:30:50;;;;;;;4.43;3.20;;;;;;;;;;8351691;28;20096;-60
2022/06/21 00:34:51;;;;;;;4.85;3.17;;;;;;;;;;8355675;28;20032;-59
2022/06/21 00:38:53;;;;;;;4.78;3.40;;;;;;;;;;8351080;28;20378;-59
2022/06/21 00:42:55;;;;;;;5.30;3.15;;;;;;;;;;8351767;28;20132;-60
2022/06/21 00:47:03;;;;;;;5.07;3.28;;;;;;;;;;8351567;28;20668;-59
2022/06/21 00:51:07;;;;;;;5.25;3.30;;;;;;;;;;8354783;28;20021;-60
2022/06/21 00:55:30;;;;;;;6.40;2.90;;;;;;;;;;8356875;28;20504;-60
2022/06/21 00:59:31;;;;;;;5.93;2.97;;;;;;;;;;8357043;28;20107;-59
2022/06/21 01:03:33;;;;;;;3.72;2.75;;;;;;;;;;8356202;28;20032;-60
2022/06/21 01:07:34;;;;;;;3.33;2.80;;;;;;;;;;8356279;28;20771;-60
2022/06/21 01:11:37;;;;;;;4.20;3.15;;;;;;;;;;8356183;28;20148;-60
2022/06/21 01:15:43;;;;;;;4.93;3.20;;;;;;;;;;8355252;28;20050;-59
2022/06/21 01:19:46;;;;;;;5.00;3.25;;;;;;;;;;8358361;28;20895;-61
2022/06/21 01:24:05;;;;;;;4.20;3.10;;;;;;;;;;8357882;28;20032;-59
2022/06/21 01:28:06;;;;;;;3.90;2.80;;;;;;;;;;8357706;28;20349;-60
2022/06/21 01:32:07;;;;;;;7.93;3.58;;;;;;;;;;8357562;28;20535;-60
2022/06/21 01:36:11;;;;;;;3.65;2.90;;;;;;;;;;8358789;28;20021;-60
2022/06/21 01:40:16;;;;;;;4.85;3.03;;;;;;;;;;8356853;28;20028;-63
2022/06/21 01:44:18;;;;;;;3.97;3.30;;;;;;;;;;8355736;28;20453;-60
2022/06/21 01:48:21;;;;;;;3.20;2.90;;;;;;;;;;8357614;28;20143;-59
2022/06/21 01:52:24;;;;;;;4.22;2.90;;;;;;;;;;8359953;28;20051;-60
2022/06/21 01:56:28;;;;;;;3.65;3.13;;;;;;;;;;8354233;28;20073;-60
2022/06/21 02:00:31;;;;;;;3.90;3.50;;;;;;;;;;8354835;28;20127;-59
2022/06/21 02:04:32;;;;;;;7.30;3.58;;;;;;;;;;8353154;28;20535;-60
2022/06/21 02:08:41;;;;;;;3.83;2.88;;;;;;;;;;8352650;28;20031;-60
2022/06/21 02:12:44;;;;;;;3.67;3.08;;;;;;;;;;8356263;28;20032;-60
2022/06/21 02:16:46;;;;;;;4.68;3.03;;;;;;;;;;8358362;28;20040;-60
2022/06/21 02:21:01;;;;;;;6.63;2.67;;;;;;;;;;8354231;28;20056;-60
2022/06/21 02:25:02;;;;;;;3.22;2.78;;;;;;;;;;8356362;28;20189;-59
2022/06/21 02:29:02;;;;;;;3.08;2.80;;;;;;;;;;8356927;28;20017;-59
2022/06/21 02:33:04;;;;;;;3.67;3.20;;;;;;;;;;8354278;28;20029;-60
2022/06/21 02:37:04;;;;;;;4.43;3.22;;;;;;;;;;8357535;28;20016;-59
2022/06/21 02:41:10;;;;;;;3.75;3.33;;;;;;;;;;8352708;28;20047;-60
2022/06/21 02:45:40;;;;;;;4.35;3.30;;;;;;;;;;8355488;28;20021;-60
2022/06/21 02:49:47;;;;;;;5.07;3.25;;;;;;;;;;8302257;28;20040;-59
2022/06/21 02:54:07;;;;;;;4.95;2.72;;;;;;;;;;8354607;28;20028;-59
2022/06/21 02:58:16;;;;;;;4.75;3.10;;;;;;;;;;8357264;28;20051;-60
2022/06/21 03:02:20;;;;;;;3.83;3.13;;;;;;;;;;8353046;28;20037;-59
2022/06/21 03:06:21;;;;;;;3.75;2.80;;;;;;;;;;8357182;28;20731;-59
2022/06/21 03:10:22;;;;;;;4.03;3.08;;;;;;;;;;8354170;28;20077;-60
2022/06/21 03:14:24;;;;;;;3.60;3.30;;;;;;;;;;8355331;28;20036;-59
2022/06/21 03:18:26;;;;;;;4.05;2.78;;;;;;;;;;8353376;28;20036;-59
2022/06/21 03:22:29;;;;;;;4.43;2.80;;;;;;;;;;8353102;28;20574;-59
2022/06/21 03:26:30;;;;;;;4.40;3.28;;;;;;;;;;8354275;28;20033;-60
2022/06/21 03:30:32;;;;;;;6.13;3.22;;;;;;;;;;8351010;28;20849;-60
2022/06/21 03:34:32;;;;;;;3.40;3.10;;;;;;;;;;8353137;28;20075;-60
2022/06/21 03:38:33;;;;;;;3.10;2.80;;;;;;;;;;8352390;28;20036;-60
2022/06/21 03:42:36;;;;;;;2.90;2.70;;;;;;;;;;8354425;28;20735;-60
2022/06/21 03:46:39;;;;;;;5.13;3.25;;;;;;;;;;8353125;28;20448;-60
2022/06/21 03:50:45;;;;;;;5.70;3.15;;;;;;;;;;8353638;28;20024;-60
2022/06/21 03:54:47;;;;;;;3.88;3.50;;;;;;;;;;8351483;28;20199;-60
2022/06/21 03:58:56;;;;;;;3.88;2.92;;;;;;;;;;8352354;28;20119;-60
2022/06/21 04:03:00;;;;;;;3.45;2.58;;;;;;;;;;8351884;28;20693;-60
2022/06/21 04:07:00;;;;;;;3.70;3.10;;;;;;;;;;8353036;28;20526;-60
2022/06/21 04:11:09;;;;;;;3.35;2.60;;;;;;;;;;8354338;28;20322;-60
2022/06/21 04:15:12;;;;;;;3.85;2.92;;;;;;;;;;8349911;28;21113;-60
2022/06/21 04:19:16;;;;;;;2.60;2.38;;;;;;;;;;8356141;28;20043;-59
2022/06/21 04:23:24;;;;;;;3.65;2.58;;;;;;;;;;8350530;28;20445;-60
2022/06/21 04:27:28;;;;;;;2.75;2.25;;;;;;;;;;8352577;28;20024;-59
2022/06/21 04:31:32;;;;;;;2.60;2.40;;;;;;;;;;8353187;28;20031;-60
2022/06/21 04:35:35;;;;;;;3.30;2.20;;;;;;;;;;8354971;28;20111;-60
2022/06/21 04:39:38;;;;;;;3.75;2.53;;;;;;;;;;8350723;28;20029;-60
2022/06/21 04:43:48;;;;;;;3.17;2.35;;;;;;;;;;8350488;28;20969;-60
2022/06/21 04:47:54;;;;;;;4.43;2.50;;;;;;;;;;8353541;28;20158;-59
2022/06/21 04:51:57;;;;;;;6.43;4.10;;;;;;;;;;8349312;28;20032;-60
2022/06/21 04:56:16;;;;;;;4.63;3.08;;;;;;;;;;8350092;28;20017;-60
2022/06/21 05:00:20;;;;;;;5.22;3.17;;;;;;;;;;8350472;28;21405;-61
2022/06/21 05:04:26;;;;;;;6.00;3.80;;;;;;;;;;8352291;28;20017;-60
2022/06/21 05:08:26;;;;;;;6.68;4.20;;;;;;;;;;8352595;28;20021;-61
2022/06/21 05:12:39;;;;;;;7.67;5.70;;;;;;;;;;8351169;28;20055;-60
2022/06/21 05:16:39;;;;;;;9.02;5.22;;;;;;;;;;8351222;28;20778;-60
2022/06/21 05:20:48;;;;;;;5.75;4.97;;;;;;;;;;8351347;28;20048;-63
2022/06/21 05:24:48;;;;;;;8.45;5.57;;;;;;;;;;8352337;28;20033;-60
2022/06/21 05:28:52;;;;;;;8.27;5.18;;;;;;;;;;8352685;28;20040;-60
2022/06/21 05:32:54;;;;;;;7.38;5.20;;;;;;;;;;8351363;28;20068;-61
2022/06/21 05:37:13;;;;;;;6.43;4.40;;;;;;;;;;8352358;28;20029;-60
2022/06/21 05:41:32;;;;;;;9.32;5.20;;;;;;;;;;8355582;28;20029;-60
2022/06/21 05:45:34;;;;;;;6.88;4.80;;;;;;;;;;8356688;28;20029;-61
2022/06/21 05:49:36;;;;;;;8.38;4.60;;;;;;;;;;8358265;28;20028;-60
2022/06/21 05:53:58;;;;;;;7.18;4.40;;;;;;;;;;8356276;28;20024;-61
2022/06/21 05:58:01;;;;;;;5.80;4.75;;;;;;;;;;8355056;28;20028;-61
2022/06/21 06:02:05;;;;;;;7.95;4.43;;;;;;;;;;8353331;28;20028;-60
2022/06/21 06:06:09;;;;;;;7.68;4.55;;;;;;;;;;8356483;28;20024;-61
2022/06/21 06:10:11;;;;;;;5.57;3.90;;;;;;;;;;8352750;28;20020;-61
2022/06/21 06:14:11;;;;;;;6.55;4.10;;;;;;;;;;8354894;28;20024;-61
2022/06/21 06:18:15;;;;;;;7.95;4.05;;;;;;;;;;8353543;28;20043;-60
2022/06/21 06:22:20;;;;;;;5.03;4.07;;;;;;;;;;8354236;28;20105;-61
2022/06/21 06:26:21;;;;;;;5.20;3.88;;;;;;;;;;8352721;28;20028;-61
2022/06/21 06:30:26;;;;;;;5.47;3.58;;;;;;;;;;8355225;28;20383;-60
2022/06/21 06:34:31;;;;;;;6.40;4.30;;;;;;;;;;8351590;28;20466;-61
2022/06/21 06:38:32;;;;;;;9.23;4.28;;;;;;;;;;8357408;28;20031;-61
2022/06/21 06:42:36;;;;;;;6.93;3.78;;;;;;;;;;8352707;28;20020;-61
2022/06/21 06:46:39;;;;;;;6.25;3.90;;;;;;;;;;8352161;28;20040;-67
2022/06/21 06:50:45;;;;;;;7.03;3.90;;;;;;;;;;8356452;28;20029;-60
2022/06/21 06:55:04;;;;;;;4.75;3.45;;;;;;;;;;8356683;28;20436;-60
2022/06/21 06:59:06;;;;;;;5.30;3.60;;;;;;;;;;8356536;28;20055;-61
2022/06/21 07:03:12;;;;;;;4.33;3.57;;;;;;;;;;8354512;28;20142;-60
2022/06/21 07:07:17;;;;;;;5.35;3.40;;;;;;;;;;8353773;28;20028;-61
2022/06/21 07:11:21;;;;;;;7.55;3.47;;;;;;;;;;8355708;28;20909;-61
2022/06/21 07:15:25;;;;;;;5.40;3.60;;;;;;;;;;8355720;28;20029;-61
2022/06/21 07:19:25;;;;;;;6.75;3.22;;;;;;;;;;8355156;28;20098;-60
2022/06/21 07:23:27;;;;;;;5.07;3.33;;;;;;;;;;8355676;28;20043;-60
2022/06/21 07:27:28;;;;;;;7.35;2.75;;;;;;;;;;8356721;28;20017;-60
2022/06/21 07:31:31;;;;;;;6.07;3.35;;;;;;;;;;8354062;28;20040;-60
2022/06/21 07:35:36;;;;;;;8.77;3.22;;;;;;;;;;8355892;28;20035;-60
2022/06/21 07:39:43;;;;;;;4.72;2.70;;;;;;;;;;8353348;28;20032;-61
2022/06/21 07:43:46;;;;;;;4.38;3.28;;;;;;;;;;8355532;28;20745;-60
2022/06/21 07:48:09;;;;;;;5.50;2.75;;;;;;;;;;8352732;28;20040;-61
2022/06/21 07:52:09;;;;;;;;;;;;;;;;;;8346903;28;20036;-60
2022/06/21 07:56:14;;;;;;;7.60;3.40;;;;;;;;;;8354778;28;19939;-59
2022/06/21 08:00:18;;;;;;;22.25;4.80;;;;;;;;;;8351014;28;20020;-60
2022/06/21 08:08:40;;;;;;;8.85;4.65;;;;;;;;;;8353761;28;20039;-61
2022/06/21 08:12:40;;;;;;;18.63;5.25;;;;;;;;;;8352655;28;20775;-60
2022/06/21 08:16:49;;;;;;;7.20;3.30;;;;;;;;;;8352036;28;20071;-61
2022/06/21 08:20:51;;;;;;;6.80;2.90;;;;;;;;;;8353075;28;20075;-60
2022/06/21 08:25:01;;;;;;;8.68;2.35;;;;;;;;;;8351414;28;20402;-60
2022/06/21 08:29:01;;;;;;;7.45;2.80;;;;;;;;;;8353116;28;20031;-61
2022/06/21 08:33:07;;;;;;;5.40;2.45;;;;;;;;;;8353923;28;20032;-60
2022/06/21 08:37:11;;;;;;;7.50;2.80;;;;;;;;;;8354625;28;20573;-60
2022/06/21 08:46:01;;;;;;;4.07;2.20;;;;;;;;;;8349930;28;20094;-61
2022/06/21 08:50:10;;;;;;;5.20;2.50;;;;;;;;;;8351954;28;20009;-60
2022/06/21 08:54:26;;;;;;;4.68;2.40;;;;;;;;;;8353093;28;20020;-60
2022/06/21 08:58:29;;;;;;;5.88;2.60;;;;;;;;;;8352323;28;20028;-60
2022/06/21 09:02:36;;;;;;;8.65;2.30;;;;;;;;;;8353399;28;20040;-60
2022/06/21 09:06:48;;;;;;;6.03;2.22;;;;;;;;;;8352394;28;20028;-61
2022/06/21 09:10:58;;;;;;;3.47;2.40;;;;;;;;;;8351627;28;20031;-60
2022/06/21 09:15:01;;;;;;;4.32;2.25;;;;;;;;;;8358168;28;20311;-62
2022/06/21 09:19:01;;;;;;;7.82;2.42;;;;;;;;;;8357443;28;20102;-61
2022/06/21 09:23:06;;;;;;;4.67;2.17;;;;;;;;;;8354437;28;20048;-60
2022/06/21 09:27:09;;;;;;;6.60;2.40;;;;;;;;;;8355533;28;20457;-60
2022/06/21 09:31:16;;;;;;;5.55;2.95;;;;;;;;;;8353455;28;20499;-60
2022/06/21 09:35:30;;;;;;;8.57;2.53;;;;;;;;;;8352515;28;20418;-61
2022/06/21 09:39:39;;;;;;;4.82;2.50;;;;;;;;;;8356464;28;20024;-61
2022/06/21 09:44:00;;;;;;;6.18;3.00;;;;;;;;;;8357324;28;20036;-60
2022/06/21 09:48:06;;;;;;;8.77;2.95;;;;;;;;;;8358856;28;20036;-60
2022/06/21 09:52:24;;;;;;;4.07;2.72;;;;;;;;;;8355613;28;20036;-60
2022/06/21 09:56:31;;;;;;;7.13;2.38;;;;;;;;;;8357169;28;20024;-60
2022/06/21 10:00:39;;;;;;;5.78;2.80;;;;;;;;;;8356112;28;20532;-60
2022/06/21 10:04:39;;;;;;;4.88;2.30;;;;;;;;;;8360252;28;20071;-61
2022/06/21 10:08:42;;;;;;;4.80;2.33;;;;;;;;;;8357368;28;20393;-61
2022/06/21 10:12:57;;;;;;;4.28;2.08;;;;;;;;;;8359117;28;20798;-61
2022/06/21 10:17:18;;;;;;;6.18;1.98;;;;;;;;;;8352720;28;20102;-61
2022/06/21 10:21:36;;;;;;;4.50;1.73;;;;;;;;;;8354104;28;20025;-60
2022/06/21 10:25:36;;;;;;;3.85;1.90;;;;;;;;;;8353289;28;20032;-61
2022/06/21 10:29:55;;;;;;;4.05;1.85;;;;;;;;;;8358293;28;20032;-61
2022/06/21 10:34:20;;;;;;;5.75;1.90;;;;;;;;;;8356554;28;20582;-61
2022/06/21 10:38:26;;;;;;;6.20;1.67;;;;;;;;;;8353462;28;20389;-60
2022/06/21 10:42:47;;;;;;;6.05;2.00;;;;;;;;;;8351511;28;20035;-60
2022/06/21 10:46:52;;;;;;;2.42;1.60;;;;;;;;;;8352484;28;20064;-60
2022/06/21 10:51:04;;;;;;;3.78;1.70;;;;;;;;;;8354646;28;20132;-60
2022/06/21 10:55:19;;;;;;;3.83;1.70;;;;;;;;;;8356409;28;20814;-60
2022/06/21 11:04:10;;;;;;;4.28;1.63;;;;;;;;;;8336377;28;20456;-60
2022/06/21 11:08:33;;;;;;;3.08;1.58;;;;;;;;;;8354587;28;20051;-60
2022/06/21 11:12:56;;;;;;;4.97;1.70;;;;;;;;;;8356325;28;20078;-60
2022/06/21 11:16:56;;;;;;;3.95;1.40;;;;;;;;;;8354178;28;20184;-61
2022/06/21 11:20:56;;;;;;;3.42;1.33;;;;;;;;;;8354975;28;20021;-61
2022/06/21 11:25:15;;;;;;;2.03;1.35;;;;;;;;;;8354799;28;20060;-60
2022/06/21 11:29:20;;;;;;;4.78;1.42;;;;;;;;;;8354766;28;20020;-61
2022/06/21 11:33:28;;;;;;;5.10;1.60;;;;;;;;;;8355016;28;20051;-60
2022/06/21 11:37:47;;;;;;;3.92;1.50;;;;;;;;;;8356895;28;20028;-60
2022/06/21 11:42:06;;;;;;;3.53;1.42;;;;;;;;;;8353930;28;20029;-60
2022/06/21 11:46:09;;;;;;;4.90;1.35;;;;;;;;;;8354023;28;20116;-61
2022/06/21 11:50:21;;;;;;;3.83;1.55;;;;;;;;;;8343861;28;20024;-61
2022/06/21 11:54:24;;;;;;;4.60;1.42;;;;;;;;;;8349652;28;20414;-60
2022/06/21 11:58:43;;;;;;;3.03;1.40;;;;;;;;;;8345977;28;20021;-61
2022/06/21 12:02:55;;;;;;;3.03;1.50;;;;;;;;;;8346954;28;20144;-61
2022/06/21 12:07:05;;;;;;;1.67;1.30;;;;;;;;;;8347293;28;20016;-61
2022/06/21 12:11:24;;;;;;;3.42;1.60;;;;;;;;;;8349114;28;20363;-61
2022/06/21 12:15:26;;;;;;;6.32;1.85;;;;;;;;;;8346331;28;20078;-61
2022/06/21 12:19:45;;;;;;;3.97;1.48;;;;;;;;;;8349308;28;20066;-60
2022/06/21 12:23:56;;;;;;;6.50;1.48;;;;;;;;;;8349373;28;20143;-60
2022/06/21 12:27:59;;;;;;;3.20;1.30;;;;;;;;;;8349327;28;20556;-61
2022/06/21 12:32:01;;;;;;;2.15;1.40;;;;;;;;;;8347810;28;20374;-61
2022/06/21 12:36:01;;;;;;;2.33;1.50;;;;;;;;;;8350305;28;20027;-61
2022/06/21 12:40:07;;;;;;;3.37;1.60;;;;;;;;;;8350517;28;20075;-60
2022/06/21 12:44:15;;;;;;;1.48;1.27;;;;;;;;;;8352390;28;20932;-61
2022/06/21 12:48:27;;;;;;;4.90;1.20;;;;;;;;;;8359974;28;20085;-60
2022/06/21 12:52:33;;;;;;;4.65;1.50;;;;;;;;;;8361354;28;20996;-61
2022/06/21 12:56:36;;;;;;;4.38;1.50;;;;;;;;;;8363084;28;20772;-60
2022/06/21 13:00:36;;;;;;;5.07;1.50;;;;;;;;;;8357703;28;20560;-60
2022/06/21 13:05:03;;;;;;;2.83;1.30;;;;;;;;;;8360370;28;20500;-60
2022/06/21 13:09:06;;;;;;;3.45;1.60;;;;;;;;;;8340999;28;20100;-60
2022/06/21 13:13:24;;;;;;;5.05;1.80;;;;;;;;;;8356776;28;20098;-60
2022/06/21 13:17:33;;;;;;;3.53;1.80;;;;;;;;;;8360124;28;20132;-61
2022/06/21 13:21:39;;;;;;;1.95;1.45;;;;;;;;;;8361289;28;20900;-60
2022/06/21 13:25:42;;;;;;;3.50;1.60;;;;;;;;;;8359454;28;20073;-60
2022/06/21 13:30:00;;;;;;;5.65;1.30;;;;;;;;;;8358077;28;20035;-61
2022/06/21 13:34:04;;;;;;;1.65;1.23;;;;;;;;;;8358771;28;20043;-61
2022/06/21 13:38:13;;;;;;;2.97;1.55;;;;;;;;;;8358443;28;20480;-61
2022/06/21 13:46:40;;;;;;;2.42;1.60;;;;;;;;;;8360010;28;20653;-61
2022/06/21 13:50:47;;;;;;;4.93;1.70;;;;;;;;;;8358972;28;20510;-61
2022/06/21 13:55:00;;;;;;;2.90;1.45;;;;;;;;;;8358897;28;20132;-60
2022/06/21 13:59:27;;;;;;;2.08;1.45;;;;;;;;;;8353840;28;20381;-61
2022/06/21 14:03:28;;;;;;;3.63;1.30;;;;;;;;;;8349577;28;20044;-62
2022/06/21 14:07:37;;;;;;;3.72;1.40;;;;;;;;;;8350835;28;20016;-60
2022/06/21 14:11:51;;;;;;;3.50;1.65;;;;;;;;;;8353075;28;20254;-61
2022/06/21 14:16:02;;;;;;;4.35;1.38;;;;;;;;;;8352022;28;20036;-61
2022/06/21 14:20:18;;;;;;;2.55;1.40;;;;;;;;;;8355955;28;20463;-60
2022/06/21 14:24:18;;;;;;;2.90;1.50;;;;;;;;;;8352468;28;20028;-60
2022/06/21 14:28:24;;;;;;;2.17;1.40;;;;;;;;;;8354165;28;20499;-61
2022/06/21 14:32:35;;;;;;;7.28;1.45;;;;;;;;;;8351032;28;20514;-61
2022/06/21 14:36:46;;;;;;;5.32;1.60;;;;;;;;;;8350503;28;20486;-61
2022/06/21 14:40:58;;;;;;;2.78;1.60;;;;;;;;;;8351745;28;20120;-61
2022/06/21 14:44:59;;;;;;;2.88;1.50;;;;;;;;;;8352765;28;20032;-61
2022/06/21 14:49:18;;;;;;;8.00;1.57;;;;;;;;;;8351464;28;20037;-60
2022/06/21 14:53:18;;;;;;;7.35;1.40;;;;;;;;;;8351768;28;20283;-61
2022/06/21 14:57:18;;;;;;;2.70;1.67;;;;;;;;;;8352734;28;20111;-60
2022/06/21 15:01:37;;;;;;;5.05;1.80;;;;;;;;;;8350317;28;20435;-61
2022/06/21 15:05:57;;;;;;;4.25;1.50;;;;;;;;;;8352595;28;20032;-61
2022/06/21 15:10:00;;;;;;;3.25;1.60;;;;;;;;;;8351242;28;20017;-61
2022/06/21 15:14:02;;;;;;;2.63;1.42;;;;;;;;;;8350972;28;20058;-61
2022/06/21 15:18:06;;;;;;;2.88;1.50;;;;;;;;;;8351482;28;20785;-60
2022/06/21 15:22:17;;;;;;;7.60;1.50;;;;;;;;;;8349877;28;20826;-62
2022/06/21 15:26:21;;;;;;;5.60;1.60;;;;;;;;;;8354684;28;20068;-61
2022/06/21 15:30:21;;;;;;;2.92;1.38;;;;;;;;;;8351864;28;20283;-61
2022/06/21 15:34:31;;;;;;;4.28;1.40;;;;;;;;;;8351193;28;20024;-61
2022/06/21 15:38:41;;;;;;;2.58;1.42;;;;;;;;;;8351462;28;20098;-66
2022/06/21 15:43:01;;;;;;;5.15;1.60;;;;;;;;;;8351403;28;20060;-61
2022/06/21 15:51:30;;;;;;;4.65;1.30;;;;;;;;;;8349478;28;20618;-61
2022/06/21 15:56:09;;;;;;;3.97;1.73;;;;;;;;;;8349532;28;20029;-61
2022/06/21 16:00:31;;;;;;;4.35;1.48;;;;;;;;;;8309845;28;20052;-61
2022/06/21 16:04:43;;;;;;;2.47;1.38;;;;;;;;;;8329736;28;20036;-61
2022/06/21 16:08:49;;;;;;;2.53;1.60;;;;;;;;;;8346760;28;21119;-61
2022/06/21 16:12:50;;;;;;;3.33;1.40;;;;;;;;;;8349094;28;20020;-62
2022/06/21 16:16:52;;;;;;;7.27;1.67;;;;;;;;;;8348532;28;20047;-63
2022/06/21 16:20:53;;;;;;;3.60;1.60;;;;;;;;;;8351535;28;20032;-62
2022/06/21 16:24:56;;;;;;;4.38;1.50;;;;;;;;;;8350921;28;20389;-61
2022/06/21 16:29:02;;;;;;;2.78;1.48;;;;;;;;;;8348481;28;20012;-61
2022/06/21 16:33:22;;;;;;;3.88;1.42;;;;;;;;;;8347493;28;20155;-61
2022/06/21 16:37:24;;;;;;;6.18;1.50;;;;;;;;;;8347970;28;20721;-61
2022/06/21 16:45:49;;;;;;;5.15;1.60;;;;;;;;;;8349237;28;20872;-61
2022/06/21 16:49:54;;;;;;;2.03;1.55;;;;;;;;;;8348677;28;20024;-61
2022/06/21 16:53:57;;;;;;;4.72;1.48;;;;;;;;;;8349709;28;20082;-61
2022/06/21 16:58:02;;;;;;;3.15;1.40;;;;;;;;;;8350900;28;20095;-61
2022/06/21 17:02:05;;;;;;;3.00;1.50;;;;;;;;;;8346357;28;20036;-61
2022/06/21 17:06:05;;;;;;;2.30;1.30;;;;;;;;;;8349288;28;20620;-61
2022/06/21 17:10:07;;;;;;;2.70;1.42;;;;;;;;;;8350206;28;20397;-61
2022/06/21 17:14:07;;;;;;;3.77;1.60;;;;;;;;;;8350724;28;20040;-61
2022/06/21 17:18:13;;;;;;;2.42;1.40;;;;;;;;;;8348131;28;20147;-61
2022/06/21 17:22:19;;;;;;;3.28;1.50;;;;;;;;;;8345611;28;20943;-60
2022/06/21 17:26:25;;;;;;;2.25;1.50;;;;;;;;;;8347652;28;20040;-60
2022/06/21 17:30:34;;;;;;;3.70;1.65;;;;;;;;;;8345437;28;20210;-60
2022/06/21 17:34:34;;;;;;;3.85;1.50;;;;;;;;;;8353607;28;20414;-60
2022/06/21 17:38:37;;;;;;;4.60;1.85;;;;;;;;;;8353713;28;20020;-62
2022/06/21 17:42:43;;;;;;;4.93;1.50;;;;;;;;;;8356118;28;20123;-60
2022/06/21 17:46:50;;;;;;;3.58;1.50;;;;;;;;;;8352061;28;20506;-60
2022/06/21 17:50:56;;;;;;;6.18;1.52;;;;;;;;;;8355755;28;20025;-59
2022/06/21 17:54:59;;;;;;;5.65;1.40;;;;;;;;;;8355603;28;21866;-60
2022/06/21 17:59:12;;;;;;;5.32;1.40;;;;;;;;;;8355661;28;20012;-61
2022/06/21 18:03:24;;;;;;;2.22;1.52;;;;;;;;;;8350715;28;20037;-60
2022/06/21 18:07:28;;;;;;;2.93;1.43;;;;;;;;;;8353348;28;20059;-60
2022/06/21 18:11:38;;;;;;;2.42;1.30;;;;;;;;;;8355438;28;20146;-60
2022/06/21 18:15:47;;;;;;;3.88;1.50;;;;;;;;;;8354812;28;20063;-60
2022/06/21 18:19:47;;;;;;;6.38;1.50;;;;;;;;;;8353218;28;20456;-59
2022/06/21 18:23:51;;;;;;;2.80;1.30;;;;;;;;;;8355627;28;20031;-60
2022/06/21 18:27:52;;;;;;;2.60;1.40;;;;;;;;;;8356688;28;20112;-60
2022/06/21 18:31:52;;;;;;;1.67;1.30;;;;;;;;;;8350740;28;20126;-60
2022/06/21 18:36:11;;;;;;;2.95;1.40;;;;;;;;;;8353244;28;20354;-60
2022/06/21 18:40:22;;;;;;;3.78;1.35;;;;;;;;;;8352665;28;20059;-60
2022/06/21 18:44:41;;;;;;;1.58;1.13;;;;;;;;;;8352585;28;20043;-60
2022/06/21 18:48:51;;;;;;;2.35;1.30;;;;;;;;;;8354392;28;20949;-60
2022/06/21 18:53:24;;;;;;;2.50;1.50;;;;;;;;;;8350529;28;20048;-61
2022/06/21 18:57:42;;;;;;;2.93;1.30;;;;;;;;;;8321277;28;20040;-60
2022/06/21 19:01:50;;;;;;;3.40;1.48;;;;;;;;;;8352904;28;20555;-60
2022/06/21 19:10:39;;;;;;;2.70;1.10;;;;;;;;;;8356091;28;20537;-60
2022/06/21 19:14:44;;;;;;;4.93;1.50;;;;;;;;;;8350979;28;20032;-59
2022/06/21 19:18:49;;;;;;;3.00;1.50;;;;;;;;;;8355167;28;20040;-60
2022/06/21 19:23:08;;;;;;;1.50;1.20;;;;;;;;;;8354750;28;20028;-60
2022/06/21 19:27:23;;;;;;;1.98;1.25;;;;;;;;;;8354110;28;20024;-60
2022/06/21 19:31:33;;;;;;;1.70;1.10;;;;;;;;;;8353457;28;20044;-60
2022/06/21 19:35:36;;;;;;;4.50;1.48;;;;;;;;;;8352636;28;20642;-60
2022/06/21 19:39:42;;;;;;;2.97;1.25;;;;;;;;;;8353553;28;20031;-60
2022/06/21 19:44:01;;;;;;;4.80;1.20;;;;;;;;;;8352362;28;20468;-59
2022/06/21 19:48:05;;;;;;;2.83;1.30;;;;;;;;;;8354608;28;20568;-60
2022/06/21 19:52:18;;;;;;;1.45;1.27;;;;;;;;;;8349932;28;20550;-60
2022/06/21 19:56:18;;;;;;;2.40;1.40;;;;;;;;;;8354139;28;20511;-60
2022/06/21 20:00:24;;;;;;;5.40;1.50;;;;;;;;;;8351935;28;20286;-60
2022/06/21 20:04:54;;;;;;;3.08;1.40;;;;;;;;;;8353511;28;20026;-60
2022/06/21 20:09:09;;;;;;;2.88;1.20;;;;;;;;;;8353636;28;20104;-59
2022/06/21 20:13:15;;;;;;;2.78;1.20;;;;;;;;;;8355392;28;20025;-59
2022/06/21 20:17:20;;;;;;;4.15;1.48;;;;;;;;;;8351984;28;20119;-60
2022/06/21 20:21:27;;;;;;;2.38;1.70;;;;;;;;;;8355706;28;20458;-60
2022/06/21 20:25:39;;;;;;;2.25;1.45;;;;;;;;;;8354369;28;20016;-59
2022/06/21 20:29:43;;;;;;;1.90;1.30;;;;;;;;;;8354985;28;20028;-60
2022/06/21 20:33:49;;;;;;;3.08;1.30;;;;;;;;;;8353450;28;20044;-59
2022/06/21 20:37:53;;;;;;;1.75;1.13;;;;;;;;;;8354932;28;20816;-60
2022/06/21 20:41:59;;;;;;;2.53;1.38;;;;;;;;;;8353900;28;20032;-60
2022/06/21 20:46:09;;;;;;;2.33;1.45;;;;;;;;;;8348807;28;20037;-60
2022/06/21 20:50:09;;;;;;;4.47;1.42;;;;;;;;;;8351177;28;20021;-60
2022/06/21 20:54:10;;;;;;;4.57;1.60;;;;;;;;;;8352146;28;20051;-59
2022/06/21 20:58:11;;;;;;;2.33;1.52;;;;;;;;;;8354887;28;20032;-59
2022/06/21 21:02:26;;;;;;;2.88;1.50;;;;;;;;;;8352506;28;20036;-60
2022/06/21 21:06:28;;;;;;;2.63;1.40;;;;;;;;;;8356055;28;20078;-60
2022/06/21 21:10:28;;;;;;;2.58;1.40;;;;;;;;;;8360659;28;20075;-59
2022/06/21 21:14:31;;;;;;;2.47;1.27;;;;;;;;;;8359054;28;20547;-59
2022/06/21 21:18:36;;;;;;;3.47;1.35;;;;;;;;;;8359968;28;20816;-59
2022/06/21 21:22:52;;;;;;;1.60;1.30;;;;;;;;;;8360102;28;20035;-60
2022/06/21 21:26:54;;;;;;;2.92;1.40;;;;;;;;;;8358817;28;20764;-59
2022/06/21 21:31:01;;;;;;;4.38;1.40;;;;;;;;;;8360330;28;20033;-61
2022/06/21 21:35:01;;;;;;;2.60;1.70;;;;;;;;;;8360272;28;20032;-59
2022/06/21 21:39:10;;;;;;;3.20;1.58;;;;;;;;;;8358551;28;20060;-60
2022/06/21 21:43:21;;;;;;;2.28;1.48;;;;;;;;;;8359472;28;20024;-60
2022/06/21 21:47:22;;;;;;;2.70;1.52;;;;;;;;;;8356142;28;20044;-60
2022/06/21 21:51:23;;;;;;;2.42;1.67;;;;;;;;;;8358991;28;20030;-60
2022/06/21 21:55:24;;;;;;;1.73;1.58;;;;;;;;;;8359062;28;20031;-59
2022/06/21 21:59:27;;;;;;;5.22;1.55;;;;;;;;;;8356291;28;20024;-59
2022/06/21 22:03:35;;;;;;;2.35;1.65;;;;;;;;;;8358278;28;20033;-59
2022/06/21 22:07:46;;;;;;;2.65;1.30;;;;;;;;;;8359839;28;20020;-59
2022/06/21 22:11:51;;;;;;;8.10;1.65;;;;;;;;;;8358780;28;20043;-60
2022/06/21 22:16:01;;;;;;;2.05;1.30;;;;;;;;;;8355850;28;20047;-60
2022/06/21 22:20:20;;;;;;;2.17;1.30;;;;;;;;;;8357309;28;20082;-60
2022/06/21 22:24:22;;;;;;;4.82;1.60;;;;;;;;;;8359820;28;20021;-60
2022/06/21 22:28:22;;;;;;;3.05;1.30;;;;;;;;;;8356866;28;20456;-60
2022/06/21 22:32:24;;;;;;;3.08;1.55;;;;;;;;;;8355496;28;20045;-64
2022/06/21 22:36:29;;;;;;;2.13;1.40;;;;;;;;;;8356408;28;20603;-60
2022/06/21 22:40:34;;;;;;;1.63;1.27;;;;;;;;;;8354164;28;20032;-60
2022/06/21 22:44:39;;;;;;;5.70;1.58;;;;;;;;;;8355973;28;20111;-60
2022/06/21 22:48:40;;;;;;;1.77;1.50;;;;;;;;;;8354641;28;20090;-59
2022/06/21 22:52:44;;;;;;;3.97;1.60;;;;;;;;;;8355051;28;20036;-60
2022/06/21 22:56:47;;;;;;;2.55;1.42;;;;;;;;;;8357862;28;20367;-59
2022/06/21 23:00:52;;;;;;;3.50;1.45;;;;;;;;;;8355194;28;20036;-60
2022/06/21 23:04:58;;;;;;;6.35;1.52;;;;;;;;;;8353666;28;20033;-59
2022/06/21 23:09:00;;;;;;;2.78;1.40;;;;;;;;;;8354750;28;20855;-59
2022/06/21 23:13:06;;;;;;;4.40;1.70;;;;;;;;;;8356913;28;20074;-59
2022/06/21 23:17:10;;;;;;;4.30;1.65;;;;;;;;;;8354669;28;20040;-60
2022/06/21 23:21:14;;;;;;;4.90;1.98;;;;;;;;;;8354695;28;20285;-60
2022/06/21 23:25:23;;;;;;;3.30;1.60;;;;;;;;;;8351037;28;20033;-61
2022/06/21 23:29:30;;;;;;;2.72;1.73;;;;;;;;;;8353269;28;20566;-60
2022/06/21 23:33:31;;;;;;;3.75;1.70;;;;;;;;;;8356752;28;20036;-59
2022/06/21 23:37:36;;;;;;;3.03;1.90;;;;;;;;;;8354437;28;20020;-60
2022/06/21 23:41:36;;;;;;;6.57;1.80;;;;;;;;;;8356230;28;20020;-61
2022/06/21 23:45:36;;;;;;;3.45;1.50;;;;;;;;;;8357555;28;20039;-59
2022/06/21 23:49:37;;;;;;;2.45;1.58;;;;;;;;;;8356056;28;20187;-60
2022/06/21 23:53:39;;;;;;;4.65;1.70;;;;;;;;;;8356459;28;20108;-60
2022/06/21 23:57:40;;;;;;;3.50;1.73;;;;;;;;;;8354348;28;20436;-59
